sensor_id;sensor_type;location;lat;lon;timestamp;temperature;humidity
11087;DHT22;5597;47.588;9.642;2022-07-22T00:00:22;17.10;99.90
11087;DHT22;5597;47.588;9.642;2022-07-22T00:02:47;17.10;99.90
11087;DHT22;5597;47.588;9.642;2022-07-22T00:05:13;17.10;99.90
11087;DHT22;5597;47.588;9.642;2022-07-22T00:07:39;17.10;99.90
11087;DHT22;5597;47.588;9.642;2022-07-22T00:10:06;17.10;99.90
11087;DHT22;5597;47.588;9.642;2022-07-22T00:12:32;17.00;99.90
11087;DHT22;5597;47.588;9.642;2022-07-22T00:14:58;17.00;99.90
11087;DHT22;5597;47.588;9.642;2022-07-22T00:17:23;17.00;99.90
11087;DHT22;5597;47.588;9.642;2022-07-22T00:19:49;17.00;99.90
11087;DHT22;5597;47.588;9.642;2022-07-22T00:22:14;17.00;99.90
11087;DHT22;5597;47.588;9.642;2022-07-22T00:24:40;17.10;99.90
11087;DHT22;5597;47.588;9.642;2022-07-22T00:27:05;17.10;99.90
11087;DHT22;5597;47.588;9.642;2022-07-22T00:29:31;17.10;99.90
11087;DHT22;5597;47.588;9.642;2022-07-22T00:31:57;17.10;99.90
11087;DHT22;5597;47.588;9.642;2022-07-22T00:34:22;17.10;99.90
11087;DHT22;5597;47.588;9.642;2022-07-22T00:36:48;17.00;99.90
11087;DHT22;5597;47.588;9.642;2022-07-22T00:39:13;17.00;99.90
11087;DHT22;5597;47.588;9.642;2022-07-22T00:41:40;16.90;99.90
11087;DHT22;5597;47.588;9.642;2022-07-22T00:44:08;16.80;99.90
11087;DHT22;5597;47.588;9.642;2022-07-22T00:46:35;16.80;99.90
11087;DHT22;5597;47.588;9.642;2022-07-22T00:49:02;16.70;99.90
11087;DHT22;5597;47.588;9.642;2022-07-22T00:51:29;16.70;99.90
11087;DHT22;5597;47.588;9.642;2022-07-22T00:53:56;16.80;99.90
11087;DHT22;5597;47.588;9.642;2022-07-22T00:56:23;16.70;99.90
11087;DHT22;5597;47.588;9.642;2022-07-22T00:58:50;16.70;99.90
11087;DHT22;5597;47.588;9.642;2022-07-22T01:01:17;16.70;99.90
11087;DHT22;5597;47.588;9.642;2022-07-22T01:03:42;16.70;99.90
11087;DHT22;5597;47.588;9.642;2022-07-22T01:06:08;16.70;99.90
11087;DHT22;5597;47.588;9.642;2022-07-22T01:08:34;16.70;99.90
11087;DHT22;5597;47.588;9.642;2022-07-22T01:11:15;16.70;99.90
11087;DHT22;5597;47.588;9.642;2022-07-22T01:13:41;16.60;99.90
11087;DHT22;5597;47.588;9.642;2022-07-22T01:16:09;16.50;99.90
11087;DHT22;5597;47.588;9.642;2022-07-22T01:18:36;16.50;99.90
11087;DHT22;5597;47.588;9.642;2022-07-22T01:21:02;16.50;99.90
11087;DHT22;5597;47.588;9.642;2022-07-22T01:23:27;16.40;99.90
11087;DHT22;5597;47.588;9.642;2022-07-22T01:25:53;16.40;99.90
11087;DHT22;5597;47.588;9.642;2022-07-22T01:28:20;16.40;99.90
11087;DHT22;5597;47.588;9.642;2022-07-22T01:30:45;16.30;99.90
11087;DHT22;5597;47.588;9.642;2022-07-22T01:33:11;16.40;99.90
11087;DHT22;5597;47.588;9.642;2022-07-22T01:35:37;16.40;99.90
11087;DHT22;5597;47.588;9.642;2022-07-22T01:38:02;16.40;99.90
11087;DHT22;5597;47.588;9.642;2022-07-22T01:40:28;16.40;99.90
11087;DHT22;5597;47.588;9.642;2022-07-22T01:42:54;16.40;99.90
11087;DHT22;5597;47.588;9.642;2022-07-22T01:45:19;16.40;99.90
11087;DHT22;5597;47.588;9.642;2022-07-22T01:47:45;16.40;99.90
11087;DHT22;5597;47.588;9.642;2022-07-22T01:50:11;16.40;99.90
11087;DHT22;5597;47.588;9.642;2022-07-22T01:52:40;16.40;99.90
11087;DHT22;5597;47.588;9.642;2022-07-22T01:55:07;16.40;99.90
11087;DHT22;5597;47.588;9.642;2022-07-22T01:57:33;16.40;99.90
11087;DHT22;5597;47.588;9.642;2022-07-22T01:59:59;16.30;99.90
11087;DHT22;5597;47.588;9.642;2022-07-22T02:02:24;16.30;99.90
11087;DHT22;5597;47.588;9.642;2022-07-22T02:04:50;16.20;99.90
11087;DHT22;5597;47.588;9.642;2022-07-22T02:07:16;16.20;99.90
11087;DHT22;5597;47.588;9.642;2022-07-22T02:09:41;16.20;99.90
11087;DHT22;5597;47.588;9.642;2022-07-22T02:12:07;16.20;99.90
11087;DHT22;5597;47.588;9.642;2022-07-22T02:14:33;16.30;99.90
11087;DHT22;5597;47.588;9.642;2022-07-22T02:16:59;16.30;99.90
11087;DHT22;5597;47.588;9.642;2022-07-22T02:19:24;16.30;99.90
11087;DHT22;5597;47.588;9.642;2022-07-22T02:21:50;16.30;99.90
11087;DHT22;5597;47.588;9.642;2022-07-22T02:24:16;16.20;99.90
11087;DHT22;5597;47.588;9.642;2022-07-22T02:26:41;16.30;99.90
11087;DHT22;5597;47.588;9.642;2022-07-22T02:29:07;16.20;99.90
11087;DHT22;5597;47.588;9.642;2022-07-22T02:31:32;16.20;99.90
11087;DHT22;5597;47.588;9.642;2022-07-22T02:33:58;16.10;99.90
11087;DHT22;5597;47.588;9.642;2022-07-22T02:36:24;16.10;99.90
11087;DHT22;5597;47.588;9.642;2022-07-22T02:38:49;16.10;99.90
11087;DHT22;5597;47.588;9.642;2022-07-22T02:41:15;16.10;99.90
11087;DHT22;5597;47.588;9.642;2022-07-22T02:43:40;16.10;99.90
11087;DHT22;5597;47.588;9.642;2022-07-22T02:46:06;16.10;99.90
11087;DHT22;5597;47.588;9.642;2022-07-22T02:48:32;16.10;99.90
11087;DHT22;5597;47.588;9.642;2022-07-22T02:50:58;16.10;99.90
11087;DHT22;5597;47.588;9.642;2022-07-22T02:53:24;16.10;99.90
11087;DHT22;5597;47.588;9.642;2022-07-22T02:55:49;16.10;99.90
11087;DHT22;5597;47.588;9.642;2022-07-22T02:58:15;16.00;99.90
11087;DHT22;5597;47.588;9.642;2022-07-22T03:00:41;16.00;99.90
11087;DHT22;5597;47.588;9.642;2022-07-22T03:03:07;16.00;99.90
11087;DHT22;5597;47.588;9.642;2022-07-22T03:05:33;16.00;99.90
11087;DHT22;5597;47.588;9.642;2022-07-22T03:07:59;15.90;99.90
11087;DHT22;5597;47.588;9.642;2022-07-22T03:10:24;15.90;99.90
11087;DHT22;5597;47.588;9.642;2022-07-22T03:12:50;15.90;99.90
11087;DHT22;5597;47.588;9.642;2022-07-22T03:15:16;15.90;99.90
11087;DHT22;5597;47.588;9.642;2022-07-22T03:17:41;15.80;99.90
11087;DHT22;5597;47.588;9.642;2022-07-22T03:20:08;15.80;99.90
11087;DHT22;5597;47.588;9.642;2022-07-22T03:22:34;15.70;99.90
11087;DHT22;5597;47.588;9.642;2022-07-22T03:25:00;15.70;99.90
11087;DHT22;5597;47.588;9.642;2022-07-22T03:27:26;15.70;99.90
11087;DHT22;5597;47.588;9.642;2022-07-22T03:29:52;15.70;99.90
11087;DHT22;5597;47.588;9.642;2022-07-22T03:32:17;15.70;99.90
11087;DHT22;5597;47.588;9.642;2022-07-22T03:34:44;15.70;99.90
11087;DHT22;5597;47.588;9.642;2022-07-22T03:37:09;15.70;99.90
11087;DHT22;5597;47.588;9.642;2022-07-22T03:39:35;15.80;99.90
11087;DHT22;5597;47.588;9.642;2022-07-22T03:42:01;15.80;99.90
11087;DHT22;5597;47.588;9.642;2022-07-22T03:44:27;15.90;99.90
11087;DHT22;5597;47.588;9.642;2022-07-22T03:46:52;15.90;99.90
11087;DHT22;5597;47.588;9.642;2022-07-22T03:49:18;15.90;99.90
11087;DHT22;5597;47.588;9.642;2022-07-22T03:51:43;15.90;99.90
11087;DHT22;5597;47.588;9.642;2022-07-22T03:54:09;15.90;99.90
11087;DHT22;5597;47.588;9.642;2022-07-22T03:56:35;15.90;99.90
11087;DHT22;5597;47.588;9.642;2022-07-22T03:59:01;16.00;99.90
11087;DHT22;5597;47.588;9.642;2022-07-22T04:01:26;16.00;99.90
11087;DHT22;5597;47.588;9.642;2022-07-22T04:03:52;16.00;99.90
11087;DHT22;5597;47.588;9.642;2022-07-22T04:06:17;16.00;99.90
11087;DHT22;5597;47.588;9.642;2022-07-22T04:08:43;16.10;99.90
11087;DHT22;5597;47.588;9.642;2022-07-22T04:11:09;16.10;99.90
11087;DHT22;5597;47.588;9.642;2022-07-22T04:13:35;16.20;99.90
11087;DHT22;5597;47.588;9.642;2022-07-22T04:16:00;16.30;99.90
11087;DHT22;5597;47.588;9.642;2022-07-22T04:18:26;16.30;99.90
11087;DHT22;5597;47.588;9.642;2022-07-22T04:20:51;16.30;99.90
11087;DHT22;5597;47.588;9.642;2022-07-22T04:23:17;16.30;99.90
11087;DHT22;5597;47.588;9.642;2022-07-22T04:25:42;16.30;99.90
11087;DHT22;5597;47.588;9.642;2022-07-22T04:28:08;16.30;99.90
11087;DHT22;5597;47.588;9.642;2022-07-22T04:30:34;16.30;99.90
11087;DHT22;5597;47.588;9.642;2022-07-22T04:32:59;16.30;99.90
11087;DHT22;5597;47.588;9.642;2022-07-22T04:35:25;16.30;99.90
11087;DHT22;5597;47.588;9.642;2022-07-22T04:37:50;16.30;99.90
11087;DHT22;5597;47.588;9.642;2022-07-22T04:40:16;16.30;99.90
11087;DHT22;5597;47.588;9.642;2022-07-22T04:42:42;16.40;99.90
11087;DHT22;5597;47.588;9.642;2022-07-22T04:45:08;16.50;99.90
11087;DHT22;5597;47.588;9.642;2022-07-22T04:47:34;16.50;99.90
11087;DHT22;5597;47.588;9.642;2022-07-22T04:49:59;16.60;99.90
11087;DHT22;5597;47.588;9.642;2022-07-22T04:52:25;16.70;99.90
11087;DHT22;5597;47.588;9.642;2022-07-22T04:54:50;16.80;99.90
11087;DHT22;5597;47.588;9.642;2022-07-22T04:57:16;16.80;99.90
11087;DHT22;5597;47.588;9.642;2022-07-22T04:59:42;16.90;99.90
11087;DHT22;5597;47.588;9.642;2022-07-22T05:02:07;16.90;99.90
11087;DHT22;5597;47.588;9.642;2022-07-22T05:04:33;17.00;99.90
11087;DHT22;5597;47.588;9.642;2022-07-22T05:06:59;17.10;99.90
11087;DHT22;5597;47.588;9.642;2022-07-22T05:09:25;17.10;99.90
11087;DHT22;5597;47.588;9.642;2022-07-22T05:11:50;17.20;99.90
11087;DHT22;5597;47.588;9.642;2022-07-22T05:14:16;17.30;99.90
11087;DHT22;5597;47.588;9.642;2022-07-22T05:16:42;17.40;99.90
11087;DHT22;5597;47.588;9.642;2022-07-22T05:19:07;17.40;99.90
11087;DHT22;5597;47.588;9.642;2022-07-22T05:21:33;17.50;99.90
11087;DHT22;5597;47.588;9.642;2022-07-22T05:23:59;17.60;99.90
11087;DHT22;5597;47.588;9.642;2022-07-22T05:26:24;17.70;99.90
11087;DHT22;5597;47.588;9.642;2022-07-22T05:28:50;17.80;99.90
11087;DHT22;5597;47.588;9.642;2022-07-22T05:31:16;18.00;99.90
11087;DHT22;5597;47.588;9.642;2022-07-22T05:33:42;18.10;99.90
11087;DHT22;5597;47.588;9.642;2022-07-22T05:36:08;18.20;99.90
11087;DHT22;5597;47.588;9.642;2022-07-22T05:38:35;18.30;99.90
11087;DHT22;5597;47.588;9.642;2022-07-22T05:41:01;18.40;99.90
11087;DHT22;5597;47.588;9.642;2022-07-22T05:43:27;18.50;99.90
11087;DHT22;5597;47.588;9.642;2022-07-22T05:45:53;18.60;99.90
11087;DHT22;5597;47.588;9.642;2022-07-22T05:48:18;18.70;99.90
11087;DHT22;5597;47.588;9.642;2022-07-22T05:50:44;18.90;99.90
11087;DHT22;5597;47.588;9.642;2022-07-22T05:53:09;19.00;99.90
11087;DHT22;5597;47.588;9.642;2022-07-22T05:55:35;19.10;99.90
11087;DHT22;5597;47.588;9.642;2022-07-22T05:58:01;19.20;99.90
11087;DHT22;5597;47.588;9.642;2022-07-22T06:00:26;19.40;99.90
11087;DHT22;5597;47.588;9.642;2022-07-22T06:02:52;19.60;99.90
11087;DHT22;5597;47.588;9.642;2022-07-22T06:05:18;19.70;99.90
11087;DHT22;5597;47.588;9.642;2022-07-22T06:07:43;19.80;99.90
11087;DHT22;5597;47.588;9.642;2022-07-22T06:10:09;19.90;99.90
11087;DHT22;5597;47.588;9.642;2022-07-22T06:12:35;20.10;99.90
11087;DHT22;5597;47.588;9.642;2022-07-22T06:15:00;20.20;99.90
11087;DHT22;5597;47.588;9.642;2022-07-22T06:17:26;20.30;99.90
11087;DHT22;5597;47.588;9.642;2022-07-22T06:19:52;20.40;99.90
11087;DHT22;5597;47.588;9.642;2022-07-22T06:22:18;20.60;99.90
11087;DHT22;5597;47.588;9.642;2022-07-22T06:24:44;20.70;99.90
11087;DHT22;5597;47.588;9.642;2022-07-22T06:27:10;20.90;99.90
11087;DHT22;5597;47.588;9.642;2022-07-22T06:29:35;20.90;99.90
11087;DHT22;5597;47.588;9.642;2022-07-22T06:32:01;21.00;99.90
11087;DHT22;5597;47.588;9.642;2022-07-22T06:34:27;21.20;99.90
11087;DHT22;5597;47.588;9.642;2022-07-22T06:36:52;21.30;99.90
11087;DHT22;5597;47.588;9.642;2022-07-22T06:39:18;21.40;99.90
11087;DHT22;5597;47.588;9.642;2022-07-22T06:41:44;21.50;99.90
11087;DHT22;5597;47.588;9.642;2022-07-22T06:44:09;21.70;99.90
11087;DHT22;5597;47.588;9.642;2022-07-22T06:46:35;21.80;99.90
11087;DHT22;5597;47.588;9.642;2022-07-22T06:49:00;21.90;99.90
11087;DHT22;5597;47.588;9.642;2022-07-22T06:51:26;22.10;99.90
11087;DHT22;5597;47.588;9.642;2022-07-22T06:53:52;22.20;99.90
11087;DHT22;5597;47.588;9.642;2022-07-22T06:56:18;22.30;99.90
11087;DHT22;5597;47.588;9.642;2022-07-22T06:58:43;22.30;99.90
11087;DHT22;5597;47.588;9.642;2022-07-22T07:01:09;22.40;99.90
11087;DHT22;5597;47.588;9.642;2022-07-22T07:03:34;22.50;99.90
11087;DHT22;5597;47.588;9.642;2022-07-22T07:06:00;22.70;99.90
11087;DHT22;5597;47.588;9.642;2022-07-22T07:08:26;22.80;99.90
11087;DHT22;5597;47.588;9.642;2022-07-22T07:10:51;22.90;99.90
11087;DHT22;5597;47.588;9.642;2022-07-22T07:13:17;23.00;99.90
11087;DHT22;5597;47.588;9.642;2022-07-22T07:15:43;23.20;99.90
11087;DHT22;5597;47.588;9.642;2022-07-22T07:18:08;23.40;99.90
11087;DHT22;5597;47.588;9.642;2022-07-22T07:20:34;23.50;99.90
11087;DHT22;5597;47.588;9.642;2022-07-22T07:23:00;23.50;99.90
11087;DHT22;5597;47.588;9.642;2022-07-22T07:25:27;23.60;99.90
11087;DHT22;5597;47.588;9.642;2022-07-22T07:27:53;23.60;99.90
11087;DHT22;5597;47.588;9.642;2022-07-22T07:30:18;23.70;99.90
11087;DHT22;5597;47.588;9.642;2022-07-22T07:32:44;23.80;99.90
11087;DHT22;5597;47.588;9.642;2022-07-22T07:35:10;23.70;99.90
11087;DHT22;5597;47.588;9.642;2022-07-22T07:37:35;23.90;99.90
11087;DHT22;5597;47.588;9.642;2022-07-22T07:40:01;23.90;99.90
11087;DHT22;5597;47.588;9.642;2022-07-22T07:42:27;24.10;99.90
11087;DHT22;5597;47.588;9.642;2022-07-22T07:44:53;24.20;99.90
11087;DHT22;5597;47.588;9.642;2022-07-22T07:47:18;24.30;99.90
11087;DHT22;5597;47.588;9.642;2022-07-22T07:49:46;24.40;99.90
11087;DHT22;5597;47.588;9.642;2022-07-22T07:52:12;24.50;99.90
11087;DHT22;5597;47.588;9.642;2022-07-22T07:54:39;24.60;99.90
11087;DHT22;5597;47.588;9.642;2022-07-22T07:57:09;24.60;99.90
11087;DHT22;5597;47.588;9.642;2022-07-22T07:59:36;24.70;99.90
11087;DHT22;5597;47.588;9.642;2022-07-22T08:02:02;24.80;99.90
11087;DHT22;5597;47.588;9.642;2022-07-22T08:04:28;25.00;99.90
11087;DHT22;5597;47.588;9.642;2022-07-22T08:06:54;25.00;99.90
11087;DHT22;5597;47.588;9.642;2022-07-22T08:09:20;25.10;99.90
11087;DHT22;5597;47.588;9.642;2022-07-22T08:11:45;25.10;99.90
11087;DHT22;5597;47.588;9.642;2022-07-22T08:14:11;25.10;99.90
11087;DHT22;5597;47.588;9.642;2022-07-22T08:16:37;25.20;99.90
11087;DHT22;5597;47.588;9.642;2022-07-22T08:19:02;25.40;99.90
11087;DHT22;5597;47.588;9.642;2022-07-22T08:21:28;25.50;99.90
11087;DHT22;5597;47.588;9.642;2022-07-22T08:23:54;25.70;99.90
11087;DHT22;5597;47.588;9.642;2022-07-22T08:26:19;25.80;99.90
11087;DHT22;5597;47.588;9.642;2022-07-22T08:28:45;26.00;99.90
11087;DHT22;5597;47.588;9.642;2022-07-22T08:31:11;26.20;99.90
11087;DHT22;5597;47.588;9.642;2022-07-22T08:33:37;26.40;99.90
11087;DHT22;5597;47.588;9.642;2022-07-22T08:36:03;26.50;99.90
11087;DHT22;5597;47.588;9.642;2022-07-22T08:38:29;26.60;99.90
11087;DHT22;5597;47.588;9.642;2022-07-22T08:40:55;26.70;99.90
11087;DHT22;5597;47.588;9.642;2022-07-22T08:43:22;26.80;99.90
11087;DHT22;5597;47.588;9.642;2022-07-22T08:45:48;26.90;99.90
11087;DHT22;5597;47.588;9.642;2022-07-22T08:48:14;27.00;99.90
11087;DHT22;5597;47.588;9.642;2022-07-22T08:50:40;27.10;99.90
11087;DHT22;5597;47.588;9.642;2022-07-22T08:53:11;27.20;99.90
11087;DHT22;5597;47.588;9.642;2022-07-22T08:55:44;27.40;99.90
11087;DHT22;5597;47.588;9.642;2022-07-22T08:58:11;27.50;99.90
11087;DHT22;5597;47.588;9.642;2022-07-22T09:00:37;27.70;99.90
11087;DHT22;5597;47.588;9.642;2022-07-22T09:03:19;27.80;99.90
11087;DHT22;5597;47.588;9.642;2022-07-22T09:05:51;28.00;99.90
11087;DHT22;5597;47.588;9.642;2022-07-22T09:08:17;28.10;99.90
11087;DHT22;5597;47.588;9.642;2022-07-22T09:10:43;28.00;99.90
11087;DHT22;5597;47.588;9.642;2022-07-22T09:13:10;28.00;99.90
11087;DHT22;5597;47.588;9.642;2022-07-22T09:15:50;28.10;99.90
11087;DHT22;5597;47.588;9.642;2022-07-22T09:18:16;28.20;99.90
11087;DHT22;5597;47.588;9.642;2022-07-22T09:20:42;28.30;99.90
11087;DHT22;5597;47.588;9.642;2022-07-22T09:23:17;28.40;99.90
11087;DHT22;5597;47.588;9.642;2022-07-22T09:25:46;28.40;99.90
11087;DHT22;5597;47.588;9.642;2022-07-22T09:28:14;28.50;99.90
11087;DHT22;5597;47.588;9.642;2022-07-22T09:30:52;28.60;99.90
11087;DHT22;5597;47.588;9.642;2022-07-22T09:33:18;28.80;99.90
11087;DHT22;5597;47.588;9.642;2022-07-22T09:35:45;29.00;99.90
11087;DHT22;5597;47.588;9.642;2022-07-22T09:38:13;29.20;99.90
11087;DHT22;5597;47.588;9.642;2022-07-22T09:40:41;29.30;99.90
11087;DHT22;5597;47.588;9.642;2022-07-22T09:43:12;29.40;99.90
11087;DHT22;5597;47.588;9.642;2022-07-22T09:45:50;29.50;99.90
11087;DHT22;5597;47.588;9.642;2022-07-22T09:48:18;29.50;99.90
11087;DHT22;5597;47.588;9.642;2022-07-22T09:50:46;29.40;99.90
11087;DHT22;5597;47.588;9.642;2022-07-22T09:53:12;29.30;99.90
11087;DHT22;5597;47.588;9.642;2022-07-22T09:55:38;29.30;99.90
11087;DHT22;5597;47.588;9.642;2022-07-22T09:58:05;29.30;99.90
11087;DHT22;5597;47.588;9.642;2022-07-22T10:00:33;29.50;99.90
11087;DHT22;5597;47.588;9.642;2022-07-22T10:03:02;29.60;99.90
11087;DHT22;5597;47.588;9.642;2022-07-22T10:05:30;29.70;99.90
11087;DHT22;5597;47.588;9.642;2022-07-22T10:07:56;29.80;99.90
11087;DHT22;5597;47.588;9.642;2022-07-22T10:10:26;29.90;99.90
11087;DHT22;5597;47.588;9.642;2022-07-22T10:12:54;30.00;99.90
11087;DHT22;5597;47.588;9.642;2022-07-22T10:15:21;30.20;99.90
11087;DHT22;5597;47.588;9.642;2022-07-22T10:17:50;30.30;99.90
11087;DHT22;5597;47.588;9.642;2022-07-22T10:20:21;30.40;99.90
11087;DHT22;5597;47.588;9.642;2022-07-22T10:22:58;30.50;99.90
11087;DHT22;5597;47.588;9.642;2022-07-22T10:25:29;30.60;99.90
11087;DHT22;5597;47.588;9.642;2022-07-22T10:27:59;30.80;99.90
11087;DHT22;5597;47.588;9.642;2022-07-22T10:30:26;30.90;99.90
11087;DHT22;5597;47.588;9.642;2022-07-22T10:35:56;31.00;99.90
11087;DHT22;5597;47.588;9.642;2022-07-22T10:38:23;31.10;99.90
11087;DHT22;5597;47.588;9.642;2022-07-22T10:40:56;31.20;99.90
11087;DHT22;5597;47.588;9.642;2022-07-22T10:43:24;31.30;99.90
11087;DHT22;5597;47.588;9.642;2022-07-22T10:46:01;31.40;99.90
11087;DHT22;5597;47.588;9.642;2022-07-22T10:51:19;31.40;99.90
11087;DHT22;5597;47.588;9.642;2022-07-22T10:56:12;31.50;99.90
11087;DHT22;5597;47.588;9.642;2022-07-22T11:01:08;31.70;99.90
11087;DHT22;5597;47.588;9.642;2022-07-22T11:03:36;31.70;99.90
11087;DHT22;5597;47.588;9.642;2022-07-22T11:08:49;32.00;99.90
11087;DHT22;5597;47.588;9.642;2022-07-22T11:11:15;32.10;99.90
11087;DHT22;5597;47.588;9.642;2022-07-22T11:13:42;32.30;99.90
11087;DHT22;5597;47.588;9.642;2022-07-22T11:16:24;32.40;99.90
11087;DHT22;5597;47.588;9.642;2022-07-22T11:18:59;32.30;99.90
11087;DHT22;5597;47.588;9.642;2022-07-22T11:21:27;32.30;99.90
11087;DHT22;5597;47.588;9.642;2022-07-22T11:23:55;32.40;99.90
11087;DHT22;5597;47.588;9.642;2022-07-22T11:26:32;32.50;99.90
11087;DHT22;5597;47.588;9.642;2022-07-22T11:28:58;32.60;99.90
11087;DHT22;5597;47.588;9.642;2022-07-22T11:31:24;32.70;99.90
11087;DHT22;5597;47.588;9.642;2022-07-22T11:33:50;32.90;99.90
11087;DHT22;5597;47.588;9.642;2022-07-22T11:36:15;33.00;99.90
11087;DHT22;5597;47.588;9.642;2022-07-22T11:38:49;33.20;99.90
11087;DHT22;5597;47.588;9.642;2022-07-22T11:41:18;33.30;99.90
11087;DHT22;5597;47.588;9.642;2022-07-22T11:43:49;33.30;99.90
11087;DHT22;5597;47.588;9.642;2022-07-22T11:46:16;33.30;99.90
11087;DHT22;5597;47.588;9.642;2022-07-22T11:48:43;33.40;99.90
11087;DHT22;5597;47.588;9.642;2022-07-22T11:51:11;33.30;99.90
11087;DHT22;5597;47.588;9.642;2022-07-22T11:53:38;33.30;99.90
11087;DHT22;5597;47.588;9.642;2022-07-22T11:56:06;33.30;99.90
11087;DHT22;5597;47.588;9.642;2022-07-22T11:58:44;33.50;99.90
11087;DHT22;5597;47.588;9.642;2022-07-22T12:01:15;33.30;99.90
11087;DHT22;5597;47.588;9.642;2022-07-22T12:03:45;33.40;99.90
11087;DHT22;5597;47.588;9.642;2022-07-22T12:06:13;33.70;99.90
11087;DHT22;5597;47.588;9.642;2022-07-22T12:08:46;34.20;99.90
11087;DHT22;5597;47.588;9.642;2022-07-22T12:11:15;34.70;99.90
11087;DHT22;5597;47.588;9.642;2022-07-22T12:13:46;35.00;98.30
11087;DHT22;5597;47.588;9.642;2022-07-22T12:16:26;34.90;96.00
11087;DHT22;5597;47.588;9.642;2022-07-22T12:19:03;34.70;97.10
11087;DHT22;5597;47.588;9.642;2022-07-22T12:21:32;34.60;95.10
11087;DHT22;5597;47.588;9.642;2022-07-22T12:24:05;34.50;95.80
11087;DHT22;5597;47.588;9.642;2022-07-22T12:32:01;35.40;95.10
11087;DHT22;5597;47.588;9.642;2022-07-22T12:37:23;35.30;93.90
11087;DHT22;5597;47.588;9.642;2022-07-22T12:40:03;35.40;93.20
11087;DHT22;5597;47.588;9.642;2022-07-22T12:42:32;35.50;91.40
11087;DHT22;5597;47.588;9.642;2022-07-22T12:47:51;35.60;91.40
11087;DHT22;5597;47.588;9.642;2022-07-22T12:50:44;35.80;91.40
11087;DHT22;5597;47.588;9.642;2022-07-22T12:53:18;36.00;90.00
11087;DHT22;5597;47.588;9.642;2022-07-22T12:58:13;36.10;90.30
11087;DHT22;5597;47.588;9.642;2022-07-22T13:00:47;36.40;90.00
11087;DHT22;5597;47.588;9.642;2022-07-22T13:03:13;36.70;86.30
11087;DHT22;5597;47.588;9.642;2022-07-22T13:05:39;36.80;84.30
11087;DHT22;5597;47.588;9.642;2022-07-22T13:08:06;37.00;81.90
11087;DHT22;5597;47.588;9.642;2022-07-22T13:10:32;37.10;80.20
11087;DHT22;5597;47.588;9.642;2022-07-22T13:12:58;37.20;78.90
11087;DHT22;5597;47.588;9.642;2022-07-22T13:15:23;37.10;79.20
11087;DHT22;5597;47.588;9.642;2022-07-22T13:17:49;37.20;80.50
11087;DHT22;5597;47.588;9.642;2022-07-22T13:20:16;37.60;84.90
11087;DHT22;5597;47.588;9.642;2022-07-22T13:22:46;38.00;78.80
11087;DHT22;5597;47.588;9.642;2022-07-22T13:25:12;38.30;80.90
11087;DHT22;5597;47.588;9.642;2022-07-22T13:27:38;38.60;77.30
11087;DHT22;5597;47.588;9.642;2022-07-22T13:30:05;38.80;77.30
11087;DHT22;5597;47.588;9.642;2022-07-22T13:32:30;38.80;70.90
11087;DHT22;5597;47.588;9.642;2022-07-22T13:34:56;38.80;71.00
11087;DHT22;5597;47.588;9.642;2022-07-22T13:37:22;39.00;72.40
11087;DHT22;5597;47.588;9.642;2022-07-22T13:39:48;39.20;69.20
11087;DHT22;5597;47.588;9.642;2022-07-22T13:42:15;39.40;72.60
11087;DHT22;5597;47.588;9.642;2022-07-22T13:44:45;39.60;73.60
11087;DHT22;5597;47.588;9.642;2022-07-22T13:47:11;39.70;70.80
11087;DHT22;5597;47.588;9.642;2022-07-22T13:49:37;39.80;71.10
11087;DHT22;5597;47.588;9.642;2022-07-22T13:52:03;40.00;73.20
11087;DHT22;5597;47.588;9.642;2022-07-22T13:54:33;40.10;67.70
11087;DHT22;5597;47.588;9.642;2022-07-22T13:56:59;40.10;68.50
11087;DHT22;5597;47.588;9.642;2022-07-22T13:59:26;40.20;68.20
11087;DHT22;5597;47.588;9.642;2022-07-22T14:01:53;40.20;68.60
11087;DHT22;5597;47.588;9.642;2022-07-22T14:04:18;40.20;66.60
11087;DHT22;5597;47.588;9.642;2022-07-22T14:06:44;40.30;67.30
11087;DHT22;5597;47.588;9.642;2022-07-22T14:09:09;40.40;67.40
11087;DHT22;5597;47.588;9.642;2022-07-22T14:11:35;40.50;66.60
11087;DHT22;5597;47.588;9.642;2022-07-22T14:14:01;40.50;66.10
11087;DHT22;5597;47.588;9.642;2022-07-22T14:16:26;40.60;64.90
11087;DHT22;5597;47.588;9.642;2022-07-22T14:19:06;40.50;64.00
11087;DHT22;5597;47.588;9.642;2022-07-22T14:21:33;40.50;66.00
11087;DHT22;5597;47.588;9.642;2022-07-22T14:23:58;40.50;62.50
11087;DHT22;5597;47.588;9.642;2022-07-22T14:26:24;40.50;63.40
11087;DHT22;5597;47.588;9.642;2022-07-22T14:28:50;40.50;63.50
11087;DHT22;5597;47.588;9.642;2022-07-22T14:31:16;40.60;62.90
11087;DHT22;5597;47.588;9.642;2022-07-22T14:33:41;40.70;62.80
11087;DHT22;5597;47.588;9.642;2022-07-22T14:36:07;40.70;61.90
11087;DHT22;5597;47.588;9.642;2022-07-22T14:38:33;40.70;61.20
11087;DHT22;5597;47.588;9.642;2022-07-22T14:40:59;40.60;59.10
11087;DHT22;5597;47.588;9.642;2022-07-22T14:43:24;40.50;59.90
11087;DHT22;5597;47.588;9.642;2022-07-22T14:45:50;40.50;60.00
11087;DHT22;5597;47.588;9.642;2022-07-22T14:48:16;40.50;59.50
11087;DHT22;5597;47.588;9.642;2022-07-22T14:50:41;40.50;59.20
11087;DHT22;5597;47.588;9.642;2022-07-22T14:53:07;40.40;58.60
11087;DHT22;5597;47.588;9.642;2022-07-22T14:55:32;40.40;58.70
11087;DHT22;5597;47.588;9.642;2022-07-22T14:57:58;40.30;60.00
11087;DHT22;5597;47.588;9.642;2022-07-22T15:00:24;40.30;57.90
11087;DHT22;5597;47.588;9.642;2022-07-22T15:02:49;40.20;58.90
11087;DHT22;5597;47.588;9.642;2022-07-22T15:05:15;40.30;59.50
11087;DHT22;5597;47.588;9.642;2022-07-22T15:07:40;40.40;59.00
11087;DHT22;5597;47.588;9.642;2022-07-22T15:10:07;40.30;57.90
11087;DHT22;5597;47.588;9.642;2022-07-22T15:12:33;40.20;56.60
11087;DHT22;5597;47.588;9.642;2022-07-22T15:14:58;40.20;57.00
11087;DHT22;5597;47.588;9.642;2022-07-22T15:17:24;40.20;56.60
11087;DHT22;5597;47.588;9.642;2022-07-22T15:19:50;40.20;54.30
11087;DHT22;5597;47.588;9.642;2022-07-22T15:22:15;40.00;54.00
11087;DHT22;5597;47.588;9.642;2022-07-22T15:24:41;39.70;55.30
11087;DHT22;5597;47.588;9.642;2022-07-22T15:27:07;39.60;56.80
11087;DHT22;5597;47.588;9.642;2022-07-22T15:29:33;39.60;56.50
11087;DHT22;5597;47.588;9.642;2022-07-22T15:31:58;39.60;56.30
11087;DHT22;5597;47.588;9.642;2022-07-22T15:34:24;39.60;54.90
11087;DHT22;5597;47.588;9.642;2022-07-22T15:36:49;39.50;53.30
11087;DHT22;5597;47.588;9.642;2022-07-22T15:39:15;39.40;53.50
11087;DHT22;5597;47.588;9.642;2022-07-22T15:41:40;39.40;51.80
11087;DHT22;5597;47.588;9.642;2022-07-22T15:44:07;39.30;51.80
11087;DHT22;5597;47.588;9.642;2022-07-22T15:46:33;39.20;53.50
11087;DHT22;5597;47.588;9.642;2022-07-22T15:48:59;39.20;54.70
11087;DHT22;5597;47.588;9.642;2022-07-22T15:51:25;39.10;53.90
11087;DHT22;5597;47.588;9.642;2022-07-22T15:53:50;39.10;53.70
11087;DHT22;5597;47.588;9.642;2022-07-22T15:56:16;39.00;53.50
11087;DHT22;5597;47.588;9.642;2022-07-22T15:58:44;38.90;52.40
11087;DHT22;5597;47.588;9.642;2022-07-22T16:01:29;38.80;50.50
11087;DHT22;5597;47.588;9.642;2022-07-22T16:03:54;38.50;52.00
11087;DHT22;5597;47.588;9.642;2022-07-22T16:06:20;38.40;50.50
11087;DHT22;5597;47.588;9.642;2022-07-22T16:08:46;38.20;51.00